Time;durP1;ratioP1;P1;durP2;ratioP2;P2;SDS_P1;SDS_P2;PMS_P1;PMS_P2;Temp;Humidity;BMP_temperature;BMP_pressure;BME280_temperature;BME280_humidity;BME280_pressure;Samples;Min_cycle;Max_cycle;Signal;HPM_P1;HPM_P2
2023/02/12 00:03:57;;;;;;;18.23;9.60;;;7.70;99.90;;;;;;15125991;23;20401;-37
2023/02/12 00:09:59;;;;;;;21.08;12.30;;;7.70;99.90;;;;;;15104451;23;20340;-37
2023/02/12 00:16:04;;;;;;;22.40;13.75;;;7.60;99.90;;;;;;15128639;23;20030;-36
2023/02/12 00:22:06;;;;;;;23.20;14.65;;;7.60;99.90;;;;;;15127430;23;20447;-36
2023/02/12 00:28:08;;;;;;;24.88;15.18;;;7.50;99.90;;;;;;15128219;23;20026;-36
2023/02/12 00:34:10;;;;;;;28.45;14.65;;;7.50;99.90;;;;;;15120678;23;20482;-37
2023/02/12 00:40:12;;;;;;;27.73;14.95;;;7.50;99.90;;;;;;15100061;23;20101;-37
2023/02/12 00:46:14;;;;;;;27.10;15.35;;;7.50;99.90;;;;;;15130433;23;20022;-36
2023/02/12 00:52:16;;;;;;;25.80;15.88;;;7.40;99.90;;;;;;15105560;23;20018;-37
2023/02/12 00:58:18;;;;;;;24.60;15.68;;;7.40;99.90;;;;;;15131113;23;20125;-36
2023/02/12 01:04:20;;;;;;;27.30;16.60;;;7.40;99.90;;;;;;15129419;23;20057;-37
2023/02/12 01:10:22;;;;;;;27.17;16.13;;;7.50;99.90;;;;;;15130520;23;20058;-36
2023/02/12 01:16:24;;;;;;;31.05;17.80;;;7.50;99.90;;;;;;15131935;23;20026;-36
2023/02/12 01:22:26;;;;;;;27.30;17.60;;;7.40;99.90;;;;;;15104599;23;20030;-36
2023/02/12 01:28:28;;;;;;;32.17;17.95;;;7.30;99.90;;;;;;15129956;23;20158;-36
2023/02/12 01:34:30;;;;;;;29.48;17.83;;;7.40;99.90;;;;;;15128169;23;20033;-37
2023/02/12 01:40:32;;;;;;;28.25;18.10;;;7.40;99.90;;;;;;15128948;23;20331;-36
2023/02/12 01:46:34;;;;;;;26.25;16.33;;;7.30;99.90;;;;;;15129626;23;20053;-37
2023/02/12 01:52:39;;;;;;;27.88;16.63;;;7.40;99.90;;;;;;15129017;23;20029;-37
2023/02/12 01:58:44;;;;;;;25.85;16.70;;;7.40;99.90;;;;;;15127686;23;20446;-36
2023/02/12 02:04:51;;;;;;;28.30;16.40;;;7.40;99.90;;;;;;15128785;23;20460;-37
2023/02/12 02:10:53;;;;;;;25.92;13.85;;;7.30;99.90;;;;;;15130395;23;20022;-36
2023/02/12 02:17:11;;;;;;;25.02;14.48;;;7.30;99.90;;;;;;15129796;23;20022;-36
2023/02/12 02:23:26;;;;;;;22.30;12.75;;;7.30;99.90;;;;;;15125128;23;20046;-36
2023/02/12 02:30:15;;;;;;;20.20;12.23;;;7.30;99.90;;;;;;15126923;23;20344;-36
2023/02/12 02:36:39;;;;;;;25.30;11.95;;;7.30;99.90;;;;;;15039869;23;20036;-37
2023/02/12 02:43:09;;;;;;;23.05;11.55;;;7.30;99.90;;;;;;15126828;23;20022;-37
2023/02/12 02:49:52;;;;;;;20.02;12.30;;;7.30;99.90;;;;;;15103624;23;20057;-36
2023/02/12 02:55:57;;;;;;;21.00;11.75;;;7.30;99.90;;;;;;15125046;23;20101;-37
2023/02/12 03:02:14;;;;;;;20.98;11.73;;;7.20;99.90;;;;;;15131728;23;20050;-36
2023/02/12 03:08:33;;;;;;;23.80;11.98;;;7.10;99.90;;;;;;15124860;23;20373;-37
2023/02/12 03:14:44;;;;;;;25.45;12.00;;;7.10;99.90;;;;;;15102674;23;20022;-37
2023/02/12 03:20:52;;;;;;;24.45;12.65;;;7.10;99.90;;;;;;15128588;23;20424;-36
2023/02/12 03:27:09;;;;;;;21.92;12.15;;;7.10;99.90;;;;;;15126886;23;20026;-35
2023/02/12 03:33:29;;;;;;;19.33;11.90;;;7.00;99.90;;;;;;15125249;23;20040;-36
2023/02/12 03:39:46;;;;;;;29.42;12.43;;;7.00;99.90;;;;;;15127871;23;20158;-37
2023/02/12 03:45:58;;;;;;;24.15;13.07;;;7.00;99.90;;;;;;15099954;23;20019;-37
2023/02/12 03:52:00;;;;;;;20.63;12.57;;;7.00;99.90;;;;;;15126533;23;20026;-37
2023/02/12 03:58:06;;;;;;;25.25;13.75;;;6.90;99.90;;;;;;15125790;23;20065;-36
2023/02/12 04:04:09;;;;;;;31.27;15.23;;;7.00;99.90;;;;;;15117200;23;20026;-36
2023/02/12 04:10:11;;;;;;;28.33;14.05;;;6.90;99.90;;;;;;15127270;23;20028;-36
2023/02/12 04:16:30;;;;;;;26.38;14.88;;;7.00;99.90;;;;;;15126121;23;20030;-36
2023/02/12 04:22:59;;;;;;;28.15;15.60;;;6.90;99.90;;;;;;15106111;23;20359;-36
2023/02/12 04:29:38;;;;;;;27.35;15.57;;;6.90;99.90;;;;;;15129531;23;20073;-37
2023/02/12 04:35:46;;;;;;;30.80;16.00;;;6.90;99.90;;;;;;15108941;23;20415;-36
2023/02/12 04:41:49;;;;;;;29.92;15.68;;;6.90;99.90;;;;;;15126483;23;20098;-37
2023/02/12 04:47:51;;;;;;;32.80;17.38;;;7.00;99.90;;;;;;15128524;23;20029;-37
2023/02/12 04:53:53;;;;;;;28.70;15.85;;;6.90;99.90;;;;;;15133228;23;20058;-37
2023/02/12 04:59:55;;;;;;;35.17;18.25;;;6.90;99.90;;;;;;15129936;23;20026;-37
2023/02/12 05:06:06;;;;;;;39.55;19.95;;;6.90;99.90;;;;;;15131636;23;20022;-36
2023/02/12 05:12:08;;;;;;;35.45;19.90;;;6.90;99.90;;;;;;15130966;23;20019;-36
2023/02/12 05:18:10;;;;;;;44.15;20.02;;;6.80;99.90;;;;;;15129291;23;20029;-36
2023/02/12 05:24:12;;;;;;;45.85;21.45;;;6.80;99.90;;;;;;15128030;23;20058;-36
2023/02/12 05:30:14;;;;;;;41.40;21.65;;;6.80;99.90;;;;;;15128419;23;20101;-37
2023/02/12 05:36:20;;;;;;;40.30;21.90;;;6.70;99.90;;;;;;15129141;23;20023;-36
2023/02/12 05:42:22;;;;;;;51.35;23.58;;;6.70;99.90;;;;;;15128465;23;20153;-37
2023/02/12 05:48:24;;;;;;;48.03;23.95;;;6.70;99.90;;;;;;15126841;23;20026;-36
2023/02/12 05:54:26;;;;;;;54.67;24.63;;;6.60;99.90;;;;;;15128212;23;20065;-36
2023/02/12 06:00:28;;;;;;;50.88;24.98;;;6.60;99.90;;;;;;15127807;23;20018;-37
2023/02/12 06:06:31;;;;;;;61.78;25.73;;;6.60;99.90;;;;;;15130093;23;20054;-36
2023/02/12 06:12:33;;;;;;;60.50;26.52;;;6.60;99.90;;;;;;15131215;23;20074;-37
2023/02/12 06:18:35;;;;;;;59.95;28.10;;;6.60;99.90;;;;;;15128040;23;20484;-36
2023/02/12 06:24:37;;;;;;;67.60;29.83;;;6.50;99.90;;;;;;15130603;23;20037;-37
2023/02/12 06:30:39;;;;;;;71.00;28.80;;;6.50;99.90;;;;;;15128268;23;20029;-37
2023/02/12 06:36:43;;;;;;;66.53;29.10;;;6.50;99.90;;;;;;15105292;23;20029;-36
2023/02/12 06:42:45;;;;;;;73.50;31.17;;;6.60;99.90;;;;;;15127826;23;20082;-36
2023/02/12 06:48:47;;;;;;;75.45;30.00;;;6.50;99.90;;;;;;15125259;23;20066;-37
2023/02/12 06:54:49;;;;;;;72.22;30.33;;;6.50;99.90;;;;;;15128467;23;20101;-36
2023/02/12 07:00:51;;;;;;;56.70;28.20;;;6.60;99.90;;;;;;15126249;23;20022;-37
2023/02/12 07:06:53;;;;;;;65.50;28.90;;;6.50;99.90;;;;;;15124267;23;20118;-36
2023/02/12 07:12:54;;;;;;;50.80;24.23;;;6.50;99.90;;;;;;15129673;23;20444;-36
2023/02/12 07:18:56;;;;;;;54.00;24.52;;;6.60;99.90;;;;;;15126580;23;20022;-36
2023/02/12 07:24:58;;;;;;;53.92;23.65;;;6.50;99.90;;;;;;15100313;23;20030;-36
2023/02/12 07:31:10;;;;;;;45.97;23.65;;;6.60;99.90;;;;;;15122616;23;20042;-36
2023/02/12 07:37:12;;;;;;;47.50;24.70;;;6.60;99.90;;;;;;15125822;23;20097;-36
2023/02/12 07:43:14;;;;;;;47.75;22.92;;;6.60;99.90;;;;;;15118807;23;20066;-36
2023/02/12 07:49:20;;;;;;;49.13;25.98;;;6.60;99.90;;;;;;15117476;23;20440;-37
2023/02/12 07:55:22;;;;;;;50.80;26.15;;;6.60;99.90;;;;;;15126844;23;20513;-36
2023/02/12 08:01:27;;;;;;;56.05;27.88;;;6.60;99.90;;;;;;15124301;23;20066;-36
2023/02/12 08:07:28;;;;;;;52.05;27.40;;;6.70;99.90;;;;;;15124227;23;20140;-37
2023/02/12 08:13:31;;;;;;;59.80;27.27;;;6.70;99.90;;;;;;15126740;23;20036;-38
2023/02/12 08:19:33;;;;;;;59.05;28.50;;;6.70;99.90;;;;;;15120905;23;20101;-37
2023/02/12 08:25:35;;;;;;;57.80;28.08;;;6.80;99.90;;;;;;15120198;23;20101;-37
2023/02/12 08:31:40;;;;;;;59.85;29.10;;;6.80;99.90;;;;;;15123794;23;20026;-37
2023/02/12 08:37:42;;;;;;;;;;;6.80;99.90;;;;;;15122327;23;20063;-36
2023/02/12 08:43:44;;;;;;;56.03;28.10;;;6.80;99.90;;;;;;15120299;23;20359;-36
2023/02/12 08:49:46;;;;;;;54.63;27.65;;;6.90;99.90;;;;;;15121636;23;20444;-36
2023/02/12 08:55:49;;;;;;;52.17;27.02;;;6.90;99.90;;;;;;15127430;23;20030;-36
2023/02/12 09:01:52;;;;;;;49.83;26.27;;;6.90;99.90;;;;;;15123810;23;20380;-37
2023/02/12 09:07:53;;;;;;;50.70;26.33;;;7.00;99.90;;;;;;15128631;23;20032;-36
2023/02/12 09:14:01;;;;;;;49.45;24.90;;;7.10;99.90;;;;;;15132018;23;20101;-36
2023/02/12 09:20:03;;;;;;;49.92;26.92;;;7.10;99.90;;;;;;15103669;23;20026;-37
2023/02/12 09:26:08;;;;;;;42.22;24.75;;;7.20;99.90;;;;;;15126658;23;20101;-37
2023/02/12 09:32:10;;;;;;;42.92;25.75;;;7.20;99.90;;;;;;15125438;23;20101;-37
2023/02/12 09:38:12;;;;;;;41.90;24.38;;;7.20;99.90;;;;;;15124102;23;20097;-36
2023/02/12 09:44:26;;;;;;;36.72;22.00;;;7.30;99.90;;;;;;15124844;23;20241;-37
2023/02/12 09:50:35;;;;;;;34.17;20.05;;;7.40;99.90;;;;;;15100097;23;20026;-37
2023/02/12 09:56:43;;;;;;;35.63;21.20;;;7.50;99.90;;;;;;15127587;23;20100;-37
2023/02/12 10:02:45;;;;;;;34.47;20.55;;;7.60;99.90;;;;;;15104138;23;20097;-37
2023/02/12 10:09:31;;;;;;;36.00;20.83;;;7.60;99.90;;;;;;15129905;23;20054;-37
2023/02/12 10:15:57;;;;;;;39.33;21.65;;;7.60;99.90;;;;;;14996386;23;20026;-37
2023/02/12 10:22:31;;;;;;;34.85;22.15;;;7.50;99.90;;;;;;15107961;23;20665;-37
2023/02/12 10:28:37;;;;;;;38.13;22.02;;;7.60;99.90;;;;;;15119977;23;20022;-36
2023/02/12 10:34:41;;;;;;;34.83;20.90;;;7.50;99.90;;;;;;15129140;23;20433;-36
2023/02/12 10:40:44;;;;;;;38.88;20.98;;;7.60;99.90;;;;;;15126939;23;20038;-36
2023/02/12 10:46:46;;;;;;;36.58;20.05;;;7.60;99.90;;;;;;15123768;23;20026;-37
2023/02/12 10:52:55;;;;;;;38.72;21.15;;;7.70;99.90;;;;;;15125210;23;20101;-37
2023/02/12 10:58:59;;;;;;;39.90;21.38;;;7.80;99.90;;;;;;15127666;23;20026;-37
2023/02/12 11:05:23;;;;;;;40.55;22.45;;;7.80;99.90;;;;;;15127636;23;20034;-36
2023/02/12 11:11:37;;;;;;;38.70;20.65;;;7.80;99.90;;;;;;15104082;23;20463;-37
2023/02/12 11:17:42;;;;;;;35.85;19.67;;;7.90;99.90;;;;;;15126731;23;20452;-37
2023/02/12 11:23:44;;;;;;;35.70;20.58;;;8.00;99.90;;;;;;15122380;23;20165;-37
2023/02/12 11:30:03;;;;;;;36.88;19.23;;;7.90;99.90;;;;;;15100545;23;20400;-36
2023/02/12 11:36:25;;;;;;;34.97;20.63;;;7.90;99.90;;;;;;15122952;23;20117;-37
2023/02/12 11:42:34;;;;;;;45.40;22.95;;;8.00;99.90;;;;;;15126844;23;20058;-37
2023/02/12 11:48:43;;;;;;;37.42;21.83;;;8.00;99.90;;;;;;15128738;23;20102;-37
2023/02/12 11:54:47;;;;;;;33.17;20.33;;;8.00;99.90;;;;;;15123981;23;20105;-36
2023/02/12 12:00:51;;;;;;;;;;;8.00;99.90;;;;;;15100798;23;20022;-37
2023/02/12 12:07:18;;;;;;;28.10;17.10;;;8.00;99.90;;;;;;15129460;23;20323;-37
2023/02/12 12:13:26;;;;;;;30.95;17.10;;;8.00;99.90;;;;;;15127404;23;20464;-36
2023/02/12 12:19:54;;;;;;;29.45;17.20;;;8.10;99.90;;;;;;15124644;23;20412;-36
2023/02/12 12:26:02;;;;;;;28.48;15.73;;;8.20;99.90;;;;;;15124064;23;20651;-36
2023/02/12 12:32:08;;;;;;;22.70;14.07;;;8.30;99.90;;;;;;15125093;23;20027;-36
2023/02/12 12:38:50;;;;;;;20.75;13.45;;;8.40;99.90;;;;;;15126580;23;20337;-37
2023/02/12 12:45:13;;;;;;;18.67;11.68;;;8.30;99.90;;;;;;15111078;23;20054;-36
2023/02/12 12:51:30;;;;;;;20.38;12.00;;;8.20;99.90;;;;;;15132716;23;20030;-37
2023/02/12 12:57:32;;;;;;;23.45;12.43;;;8.20;99.90;;;;;;15128445;23;20050;-36
2023/02/12 13:03:52;;;;;;;18.25;10.93;;;8.20;99.90;;;;;;15118265;23;20101;-36
2023/02/12 13:10:16;;;;;;;17.90;10.73;;;8.20;99.90;;;;;;15132325;23;20023;-36
2023/02/12 13:16:28;;;;;;;16.83;9.03;;;8.10;99.90;;;;;;15130246;23;20026;-37
2023/02/12 13:23:12;;;;;;;15.02;8.05;;;8.20;99.90;;;;;;15128518;23;20057;-36
2023/02/12 13:29:17;;;;;;;14.13;8.93;;;8.20;99.90;;;;;;15106666;23;20407;-36
2023/02/12 13:35:21;;;;;;;16.38;10.38;;;8.20;99.90;;;;;;15126477;23;20030;-37
2023/02/12 13:41:25;;;;;;;11.07;6.50;;;8.10;99.90;;;;;;15124695;23;20348;-37
2023/02/12 13:47:53;;;;;;;13.55;7.72;;;8.10;99.90;;;;;;15125430;23;20026;-36
2023/02/12 13:54:18;;;;;;;10.02;6.70;;;8.10;99.90;;;;;;15125822;23;20456;-36
2023/02/12 14:00:48;;;;;;;9.95;6.50;;;8.10;99.90;;;;;;15097408;23;20380;-36
2023/02/12 14:06:57;;;;;;;9.48;6.05;;;8.10;99.90;;;;;;15126919;23;20023;-37
2023/02/12 14:13:33;;;;;;;8.65;6.25;;;8.10;99.90;;;;;;15131250;23;20463;-36
2023/02/12 14:19:50;;;;;;;8.27;5.43;;;8.00;99.90;;;;;;15098658;23;20022;-37
2023/02/12 14:25:58;;;;;;;8.65;5.57;;;7.90;99.90;;;;;;15114199;23;20026;-37
2023/02/12 14:32:01;;;;;;;10.65;5.82;;;8.00;99.90;;;;;;15124472;23;20054;-37
2023/02/12 14:38:43;;;;;;;8.75;5.50;;;8.00;99.90;;;;;;15120040;23;20026;-36
2023/02/12 14:44:58;;;;;;;10.65;5.55;;;8.00;99.90;;;;;;15116676;23;20033;-36
2023/02/12 14:51:01;;;;;;;7.50;5.45;;;8.00;99.90;;;;;;15125156;23;20459;-37
2023/02/12 14:57:20;;;;;;;10.35;6.57;;;8.00;99.90;;;;;;15127993;23;20486;-37
2023/02/12 15:03:37;;;;;;;9.50;6.18;;;8.00;99.90;;;;;;15125993;23;20022;-37
2023/02/12 15:09:50;;;;;;;9.00;5.60;;;8.00;99.90;;;;;;15103616;23;20034;-36
2023/02/12 15:16:05;;;;;;;12.25;7.20;;;8.00;99.90;;;;;;15126899;23;20124;-37
2023/02/12 15:22:34;;;;;;;;;;;8.00;99.90;;;;;;15121657;23;20030;-37
2023/02/12 15:28:37;;;;;;;8.32;5.45;;;8.00;99.90;;;;;;15116806;23;19971;-36
2023/02/12 15:34:40;;;;;;;7.03;4.60;;;8.00;99.90;;;;;;15098523;23;20369;-37
2023/02/12 15:40:55;;;;;;;12.60;8.55;;;7.90;99.90;;;;;;15123377;23;20372;-37
2023/02/12 15:47:06;;;;;;;8.10;5.60;;;7.90;99.90;;;;;;15125182;23;20101;-37
2023/02/12 15:53:09;;;;;;;8.43;5.47;;;7.90;99.90;;;;;;15123902;23;20101;-37
2023/02/12 15:59:23;;;;;;;8.90;5.78;;;7.80;99.90;;;;;;15124005;23;20034;-37
2023/02/12 16:05:26;;;;;;;8.23;5.47;;;7.80;99.90;;;;;;15123773;23;20037;-37
2023/02/12 16:11:29;;;;;;;8.65;5.53;;;7.80;99.90;;;;;;15125878;23;20023;-37
2023/02/12 16:17:34;;;;;;;10.00;6.68;;;7.70;99.90;;;;;;15123398;23;20031;-36
2023/02/12 16:23:36;;;;;;;10.48;7.25;;;7.70;99.90;;;;;;15124764;23;20049;-37
2023/02/12 16:29:44;;;;;;;11.30;6.72;;;7.60;99.90;;;;;;15098829;23;20483;-37
2023/02/12 16:35:59;;;;;;;10.80;7.10;;;7.60;99.90;;;;;;15131570;23;20023;-37
2023/02/12 16:42:01;;;;;;;9.82;5.80;;;7.50;99.90;;;;;;15100023;23;20031;-37
2023/02/12 16:48:06;;;;;;;8.27;5.43;;;7.50;99.90;;;;;;15125338;23;20445;-36
2023/02/12 16:54:30;;;;;;;8.88;5.40;;;7.40;99.90;;;;;;15129272;23;20030;-37
2023/02/12 17:00:32;;;;;;;8.90;5.55;;;7.40;99.90;;;;;;15128667;23;20030;-36
2023/02/12 17:06:34;;;;;;;10.98;5.63;;;7.30;99.90;;;;;;15127469;23;20571;-37
2023/02/12 17:12:50;;;;;;;8.35;5.07;;;7.30;99.90;;;;;;15130856;23;20018;-37
2023/02/12 17:18:52;;;;;;;9.20;5.60;;;7.30;99.90;;;;;;15132733;23;20121;-37
2023/02/12 17:24:53;;;;;;;12.13;7.50;;;7.20;99.90;;;;;;15125519;23;20105;-36
2023/02/12 17:30:56;;;;;;;14.90;6.68;;;7.20;99.90;;;;;;15125666;23;20355;-37
2023/02/12 17:36:58;;;;;;;14.82;10.27;;;7.20;99.90;;;;;;15126580;23;20101;-37
2023/02/12 17:43:00;;;;;;;10.43;6.63;;;7.20;99.90;;;;;;15130231;23;20101;-36
2023/02/12 17:49:03;;;;;;;12.23;6.95;;;7.20;99.90;;;;;;15132755;23;20037;-37
2023/02/12 17:55:05;;;;;;;10.20;6.88;;;7.20;99.90;;;;;;15128516;23;20026;-36
2023/02/12 18:01:10;;;;;;;13.27;8.18;;;7.10;99.90;;;;;;15127255;23;20391;-36
2023/02/12 18:07:11;;;;;;;11.98;8.25;;;7.10;99.90;;;;;;15128963;23;20030;-36
2023/02/12 18:13:13;;;;;;;11.05;7.93;;;7.10;99.90;;;;;;15129949;23;20866;-36
2023/02/12 18:19:15;;;;;;;16.13;9.55;;;7.20;99.90;;;;;;15127836;23;20049;-37
2023/02/12 18:25:17;;;;;;;12.55;8.18;;;7.20;99.90;;;;;;15120795;23;20034;-36
2023/02/12 18:31:19;;;;;;;14.20;9.68;;;7.10;99.90;;;;;;15128503;23;20029;-36
2023/02/12 18:37:21;;;;;;;13.93;9.52;;;7.10;99.90;;;;;;15127424;23;20411;-36
2023/02/12 18:43:23;;;;;;;15.07;9.48;;;7.10;99.90;;;;;;15125721;23;20034;-36
2023/02/12 18:49:26;;;;;;;13.63;8.93;;;7.10;99.90;;;;;;15128960;23;20097;-37
2023/02/12 18:55:28;;;;;;;14.50;8.88;;;7.10;99.90;;;;;;15127665;23;20026;-37
2023/02/12 19:01:31;;;;;;;15.10;9.45;;;7.10;99.90;;;;;;15122858;23;20046;-36
2023/02/12 19:07:33;;;;;;;16.33;9.32;;;7.10;99.90;;;;;;15123324;23;21124;-36
2023/02/12 19:13:36;;;;;;;17.33;9.30;;;7.10;99.90;;;;;;15126719;23;20037;-37
2023/02/12 19:19:38;;;;;;;16.95;11.02;;;7.10;99.90;;;;;;15124491;23;20056;-37
2023/02/12 19:25:42;;;;;;;15.32;10.02;;;7.10;99.90;;;;;;15123035;23;20467;-36
2023/02/12 19:31:45;;;;;;;15.20;8.98;;;7.10;99.90;;;;;;15123510;23;20022;-37
2023/02/12 19:37:47;;;;;;;16.85;10.00;;;7.10;99.90;;;;;;15130266;23;20061;-36
2023/02/12 19:44:00;;;;;;;16.52;10.05;;;7.10;99.90;;;;;;15124308;23;20113;-36
2023/02/12 19:50:02;;;;;;;14.90;9.90;;;7.10;99.90;;;;;;15121829;23;20030;-36
2023/02/12 19:56:05;;;;;;;16.25;9.75;;;7.10;99.90;;;;;;15125735;23;20513;-36
2023/02/12 20:02:08;;;;;;;15.95;9.90;;;7.00;99.90;;;;;;15122967;23;20022;-37
2023/02/12 20:08:11;;;;;;;18.27;10.43;;;7.00;99.90;;;;;;15125624;23;20105;-36
2023/02/12 20:14:14;;;;;;;17.95;10.93;;;7.10;99.90;;;;;;15123957;23;20097;-37
2023/02/12 20:20:15;;;;;;;17.58;11.43;;;7.00;99.90;;;;;;15122152;23;20502;-37
2023/02/12 20:26:18;;;;;;;18.60;11.57;;;7.00;99.90;;;;;;15122186;23;20065;-37
2023/02/12 20:32:20;;;;;;;18.30;11.93;;;7.10;99.90;;;;;;15124805;23;20023;-37
2023/02/12 20:38:22;;;;;;;22.63;13.65;;;7.00;99.90;;;;;;15102597;23;20474;-37
2023/02/12 20:44:24;;;;;;;20.58;12.13;;;7.00;99.90;;;;;;15097739;23;20058;-36
2023/02/12 20:50:26;;;;;;;18.60;11.40;;;6.90;99.90;;;;;;15124068;23;20065;-36
2023/02/12 20:56:31;;;;;;;20.15;13.02;;;6.90;99.90;;;;;;15127194;23;20101;-36
2023/02/12 21:02:33;;;;;;;21.67;14.23;;;6.90;99.90;;;;;;15126095;23;20025;-37
2023/02/12 21:08:36;;;;;;;22.75;13.52;;;6.90;99.90;;;;;;15131962;23;20033;-37
2023/02/12 21:14:38;;;;;;;18.73;12.30;;;7.00;99.90;;;;;;15128953;23;20041;-37
2023/02/12 21:20:40;;;;;;;20.75;13.02;;;6.90;99.90;;;;;;15129230;23;20105;-37
2023/02/12 21:26:42;;;;;;;20.08;12.73;;;7.00;99.90;;;;;;15099717;23;20030;-37
2023/02/12 21:32:44;;;;;;;19.48;12.15;;;7.00;99.90;;;;;;15129611;23;20014;-36
2023/02/12 21:38:47;;;;;;;22.00;13.40;;;7.00;99.90;;;;;;15131737;23;20066;-37
2023/02/12 21:44:49;;;;;;;20.13;13.02;;;7.00;99.90;;;;;;15123396;23;20457;-36
2023/02/12 21:50:51;;;;;;;19.73;12.43;;;7.00;99.90;;;;;;15128846;23;20040;-36
2023/02/12 21:56:54;;;;;;;19.85;12.75;;;6.90;99.90;;;;;;15131770;23;20546;-37
2023/02/12 22:02:56;;;;;;;19.08;11.80;;;7.00;99.90;;;;;;15119139;23;20452;-37
2023/02/12 22:09:06;;;;;;;18.15;11.20;;;7.00;99.90;;;;;;15129070;23;20105;-36
2023/02/12 22:15:08;;;;;;;19.45;11.95;;;7.00;99.90;;;;;;15128853;23;20452;-37
2023/02/12 22:21:13;;;;;;;18.45;11.63;;;7.00;99.90;;;;;;15103625;23;20101;-36
2023/02/12 22:27:15;;;;;;;18.60;11.60;;;7.00;99.90;;;;;;15128923;23;20022;-37
2023/02/12 22:33:17;;;;;;;19.45;11.85;;;7.00;99.90;;;;;;15129037;23;20026;-37
2023/02/12 22:39:20;;;;;;;19.92;11.70;;;7.00;99.90;;;;;;15129004;23;20033;-37
2023/02/12 22:45:22;;;;;;;17.35;11.18;;;7.00;99.90;;;;;;15127846;23;20027;-37
2023/02/12 22:51:26;;;;;;;17.80;10.73;;;7.00;99.90;;;;;;15126365;23;20101;-36
2023/02/12 22:57:28;;;;;;;17.27;11.13;;;7.10;99.90;;;;;;15129996;23;20502;-36
2023/02/12 23:03:31;;;;;;;17.23;10.27;;;7.10;99.90;;;;;;15124182;23;20022;-36
2023/02/12 23:09:33;;;;;;;16.35;10.32;;;7.10;99.90;;;;;;15127423;23;20078;-37
2023/02/12 23:15:35;;;;;;;15.43;9.82;;;7.10;99.90;;;;;;15126267;23;20054;-36
2023/02/12 23:21:37;;;;;;;17.20;10.90;;;7.10;99.90;;;;;;15125124;23;20105;-36
2023/02/12 23:27:38;;;;;;;16.10;9.95;;;7.10;99.90;;;;;;15097578;23;20062;-37
2023/02/12 23:33:40;;;;;;;15.77;10.38;;;7.10;99.90;;;;;;15100577;23;20122;-36
2023/02/12 23:39:42;;;;;;;17.10;9.98;;;7.10;99.90;;;;;;15123361;23;20116;-36
2023/02/12 23:45:45;;;;;;;16.60;10.75;;;7.00;99.90;;;;;;15124452;23;20022;-36
2023/02/12 23:51:47;;;;;;;19.77;11.90;;;7.00;99.90;;;;;;15126142;23;20023;-37
2023/02/12 23:57:49;;;;;;;16.95;10.93;;;7.00;99.90;;;;;;15127895;23;20022;-36
